Time;durP1;ratioP1;P1;durP2;ratioP2;P2;SDS_P1;SDS_P2;PMS_P1;PMS_P2;Temp;Humidity;BMP_temperature;BMP_pressure;BME280_temperature;BME280_humidity;BME280_pressure;Samples;Min_cycle;Max_cycle;Signal;HPM_P1;HPM_P2
2023/08/05 00:04:18;;;;;;;1.17;1.07;;;20.90;38.90;;;;;;10282587;28;20266;-74
2023/08/05 00:09:21;;;;;;;0.97;0.97;;;20.80;38.50;;;;;;10273644;28;20243;-73
2023/08/05 00:14:26;;;;;;;1.03;1.00;;;20.70;38.40;;;;;;10261122;28;20308;-74
2023/08/05 00:19:29;;;;;;;2.70;1.00;;;20.70;39.00;;;;;;10274750;28;20255;-74
2023/08/05 00:24:32;;;;;;;0.90;0.90;;;20.60;38.60;;;;;;10276600;28;20232;-74
2023/08/05 00:29:36;;;;;;;1.30;0.90;;;20.60;38.80;;;;;;10275279;28;20240;-73
2023/08/05 00:34:40;;;;;;;0.90;0.90;;;20.60;39.20;;;;;;10273310;28;20278;-73
2023/08/05 00:39:43;;;;;;;0.80;0.80;;;20.50;38.80;;;;;;10282496;28;20731;-74
2023/08/05 00:44:47;;;;;;;1.10;1.00;;;20.50;38.70;;;;;;10276704;28;20743;-73
2023/08/05 00:49:52;;;;;;;2.13;0.80;;;20.50;39.20;;;;;;10263711;28;20248;-74
2023/08/05 00:54:55;;;;;;;1.53;1.00;;;20.50;39.20;;;;;;10266629;28;20241;-73
2023/08/05 01:00:00;;;;;;;0.80;0.80;;;20.50;38.90;;;;;;10273322;28;20242;-74
2023/08/05 01:05:03;;;;;;;0.70;0.70;;;20.50;39.10;;;;;;10275505;28;20242;-73
2023/08/05 01:10:07;;;;;;;0.80;0.80;;;20.40;38.80;;;;;;10267324;28;20615;-73
2023/08/05 01:15:12;;;;;;;1.97;0.83;;;20.40;39.00;;;;;;10264401;28;20234;-73
2023/08/05 01:20:17;;;;;;;1.80;0.90;;;20.30;39.30;;;;;;10273573;28;20313;-73
2023/08/05 01:25:28;;;;;;;1.30;1.20;;;20.30;39.60;;;;;;10281125;28;20231;-73
2023/08/05 01:30:32;;;;;;;1.77;0.90;;;20.30;40.00;;;;;;10275794;28;20328;-73
2023/08/05 01:35:35;;;;;;;0.70;0.70;;;20.20;39.20;;;;;;10275516;28;20231;-73
2023/08/05 01:40:39;;;;;;;0.80;0.80;;;20.20;39.20;;;;;;10287835;28;20742;-73
2023/08/05 01:45:43;;;;;;;0.60;0.60;;;20.20;39.60;;;;;;10276394;28;20661;-73
2023/08/05 01:50:46;;;;;;;0.70;0.70;;;20.20;39.30;;;;;;10279265;28;20243;-73
2023/08/05 01:55:50;;;;;;;0.80;0.80;;;20.20;39.30;;;;;;10276510;28;20229;-73
2023/08/05 02:00:54;;;;;;;0.70;0.70;;;20.10;39.60;;;;;;10276655;28;20259;-73
2023/08/05 02:05:57;;;;;;;0.50;0.50;;;20.10;39.20;;;;;;10282213;28;20311;-73
2023/08/05 02:11:02;;;;;;;0.80;0.80;;;20.00;39.30;;;;;;10270661;28;20246;-73
2023/08/05 02:16:05;;;;;;;0.87;0.70;;;19.80;39.80;;;;;;10280825;28;20246;-73
2023/08/05 02:21:08;;;;;;;0.67;0.67;;;19.70;39.50;;;;;;10270207;28;20250;-73
2023/08/05 02:26:13;;;;;;;1.20;0.90;;;19.60;39.80;;;;;;10283893;28;20243;-73
2023/08/05 02:31:16;;;;;;;0.70;0.70;;;19.60;40.40;;;;;;10280173;28;20730;-73
2023/08/05 02:36:19;;;;;;;0.73;0.73;;;19.60;40.20;;;;;;10272500;28;20242;-73
2023/08/05 02:41:24;;;;;;;0.80;0.80;;;19.50;40.40;;;;;;10267222;28;20241;-73
2023/08/05 02:46:27;;;;;;;0.70;0.70;;;19.50;41.00;;;;;;10281631;28;20311;-73
2023/08/05 02:51:30;;;;;;;0.63;0.63;;;19.50;40.40;;;;;;10278595;28;20239;-73
2023/08/05 02:56:35;;;;;;;0.70;0.70;;;19.50;40.50;;;;;;10285309;28;20234;-73
2023/08/05 03:01:38;;;;;;;0.90;0.90;;;19.50;41.10;;;;;;10284972;28;20240;-73
2023/08/05 03:06:41;;;;;;;1.27;1.17;;;19.50;40.70;;;;;;10276159;28;20232;-73
2023/08/05 03:11:45;;;;;;;0.80;0.80;;;19.60;40.70;;;;;;10274314;28;20246;-73
2023/08/05 03:16:49;;;;;;;1.20;0.80;;;19.60;41.10;;;;;;10268459;28;20247;-73
2023/08/05 03:21:52;;;;;;;1.10;1.10;;;19.60;40.80;;;;;;10269466;28;20251;-73
2023/08/05 03:26:57;;;;;;;1.23;1.20;;;19.70;40.90;;;;;;10276650;28;20235;-73
2023/08/05 03:32:00;;;;;;;1.57;1.47;;;19.70;41.30;;;;;;10277653;28;20769;-73
2023/08/05 03:37:04;;;;;;;1.80;1.70;;;19.70;40.90;;;;;;10280121;28;20705;-73
2023/08/05 03:42:08;;;;;;;1.60;1.50;;;19.70;41.00;;;;;;10269445;28;20250;-73
2023/08/05 03:47:11;;;;;;;1.30;1.30;;;19.70;41.30;;;;;;10262104;28;20327;-73
2023/08/05 03:52:15;;;;;;;1.40;1.30;;;19.70;41.00;;;;;;10280607;28;20428;-73
2023/08/05 03:57:19;;;;;;;1.03;1.03;;;19.70;41.20;;;;;;10270750;28;20610;-73
2023/08/05 04:02:22;;;;;;;1.63;1.53;;;19.70;41.70;;;;;;10257195;28;20249;-73
2023/08/05 04:07:26;;;;;;;1.80;1.60;;;19.70;41.40;;;;;;10266677;28;20311;-73
2023/08/05 04:12:33;;;;;;;1.60;1.50;;;19.70;41.50;;;;;;10269362;28;20263;-73
2023/08/05 04:17:36;;;;;;;1.87;1.77;;;19.70;42.00;;;;;;10273808;28;20231;-73
2023/08/05 04:22:40;;;;;;;1.90;1.80;;;19.70;42.30;;;;;;10269275;28;20612;-73
2023/08/05 04:27:44;;;;;;;2.00;1.90;;;19.70;41.80;;;;;;10270895;28;20236;-73
2023/08/05 04:32:47;;;;;;;2.17;2.07;;;19.70;42.40;;;;;;10269738;28;20238;-73
2023/08/05 04:37:50;;;;;;;2.00;1.90;;;19.70;42.00;;;;;;10272362;28;20260;-73
2023/08/05 04:42:55;;;;;;;2.27;2.17;;;19.70;42.00;;;;;;10266635;28;20327;-74
2023/08/05 04:47:58;;;;;;;2.40;2.30;;;19.80;42.50;;;;;;10266211;28;20239;-73
2023/08/05 04:53:01;;;;;;;2.17;2.07;;;19.70;42.10;;;;;;10273671;28;20239;-73
2023/08/05 04:58:06;;;;;;;2.33;2.17;;;19.70;42.10;;;;;;10280746;28;20235;-73
2023/08/05 05:03:09;;;;;;;2.73;2.53;;;19.70;42.80;;;;;;10279266;28;20236;-74
2023/08/05 05:08:12;;;;;;;2.20;2.10;;;19.70;42.30;;;;;;10285366;28;20238;-73
2023/08/05 05:13:19;;;;;;;3.00;2.80;;;19.70;42.40;;;;;;10273004;28;20247;-74
2023/08/05 05:18:22;;;;;;;2.93;2.73;;;19.60;43.00;;;;;;10285051;28;20238;-74
2023/08/05 05:23:26;;;;;;;2.83;2.63;;;19.60;42.60;;;;;;10270561;28;20239;-73
2023/08/05 05:28:30;;;;;;;3.50;3.20;;;19.60;42.70;;;;;;10276835;28;20239;-73
2023/08/05 05:33:33;;;;;;;3.40;3.10;;;19.60;43.30;;;;;;10271799;28;20235;-74
2023/08/05 05:38:36;;;;;;;3.20;3.00;;;19.50;42.80;;;;;;10286351;28;20246;-73
2023/08/05 05:43:42;;;;;;;3.60;3.30;;;19.50;42.90;;;;;;10269561;28;20259;-74
2023/08/05 05:48:45;;;;;;;3.50;3.23;;;19.50;43.30;;;;;;10276810;28;20235;-74
2023/08/05 05:53:49;;;;;;;2.87;2.67;;;19.60;43.00;;;;;;10278043;28;20251;-73
2023/08/05 05:58:54;;;;;;;3.47;3.17;;;19.60;43.10;;;;;;10280540;28;20267;-74
2023/08/05 06:03:57;;;;;;;4.00;3.60;;;19.60;43.70;;;;;;10264029;28;20263;-74
2023/08/05 06:09:01;;;;;;;3.80;3.50;;;19.60;43.10;;;;;;10276280;28;20921;-73
2023/08/05 06:14:05;;;;;;;3.60;3.30;;;19.60;43.00;;;;;;10273506;28;20253;-73
2023/08/05 06:19:08;;;;;;;3.30;3.10;;;19.70;43.60;;;;;;10272003;28;20312;-73
2023/08/05 06:24:11;;;;;;;3.63;3.33;;;19.70;43.40;;;;;;10270848;28;20236;-73
2023/08/05 06:29:16;;;;;;;3.57;3.27;;;19.70;43.40;;;;;;10274037;28;20329;-73
2023/08/05 06:34:21;;;;;;;3.73;3.43;;;19.80;43.80;;;;;;10265760;28;20326;-73
2023/08/05 06:39:24;;;;;;;3.50;3.30;;;19.80;43.40;;;;;;10280099;28;20783;-73
2023/08/05 06:44:28;;;;;;;7.00;3.13;;;19.80;43.30;;;;;;10273486;28;20232;-73
2023/08/05 06:49:32;;;;;;;3.70;3.40;;;19.90;43.90;;;;;;10276977;28;20236;-73
2023/08/05 06:54:35;;;;;;;3.80;3.50;;;19.90;43.40;;;;;;10270360;28;20855;-73
2023/08/05 06:59:40;;;;;;;4.00;3.70;;;19.90;43.50;;;;;;10269483;28;20366;-74
2023/08/05 07:04:43;;;;;;;3.60;3.30;;;19.80;43.70;;;;;;10277328;28;20231;-73
2023/08/05 07:09:46;;;;;;;3.30;3.10;;;19.80;43.70;;;;;;10265996;28;20236;-73
2023/08/05 07:14:51;;;;;;;3.77;3.43;;;19.90;43.90;;;;;;10272165;28;20242;-74
2023/08/05 07:19:54;;;;;;;4.73;3.40;;;19.90;44.30;;;;;;10269190;28;20322;-73
2023/08/05 07:24:58;;;;;;;4.10;3.73;;;20.00;43.80;;;;;;10278639;28;20246;-73
2023/08/05 07:30:02;;;;;;;3.90;3.60;;;20.00;43.80;;;;;;10278964;28;20274;-73
2023/08/05 07:35:07;;;;;;;3.33;3.13;;;20.10;44.00;;;;;;10269271;28;20235;-73
2023/08/05 07:40:12;;;;;;;3.70;3.40;;;20.10;43.80;;;;;;10260172;28;20240;-73
2023/08/05 07:45:18;;;;;;;3.90;3.60;;;20.10;43.70;;;;;;10275420;28;20239;-73
2023/08/05 07:50:22;;;;;;;3.93;3.03;;;20.20;43.90;;;;;;10272747;28;20232;-73
2023/08/05 07:55:29;;;;;;;3.80;3.50;;;20.20;43.60;;;;;;10283406;28;20652;-73
2023/08/05 08:00:34;;;;;;;3.87;3.17;;;20.20;43.60;;;;;;10266914;28;20290;-73
2023/08/05 08:05:37;;;;;;;3.13;2.83;;;20.20;43.90;;;;;;10262298;28;20319;-73
2023/08/05 08:10:40;;;;;;;3.10;2.90;;;20.20;43.60;;;;;;10260623;28;20640;-73
2023/08/05 08:15:45;;;;;;;3.20;2.90;;;20.30;43.70;;;;;;10268442;28;20231;-73
2023/08/05 08:20:50;;;;;;;3.00;2.80;;;20.40;44.00;;;;;;10275021;28;20236;-73
2023/08/05 08:25:53;;;;;;;3.37;3.03;;;20.40;43.80;;;;;;10267087;28;20244;-73
2023/08/05 08:30:58;;;;;;;3.33;3.13;;;20.50;43.60;;;;;;10269475;28;20921;-73
2023/08/05 08:36:02;;;;;;;4.03;3.30;;;20.40;43.90;;;;;;10261845;28;20235;-73
2023/08/05 08:41:05;;;;;;;3.70;3.40;;;20.50;43.40;;;;;;10259595;28;20248;-73
2023/08/05 08:46:10;;;;;;;3.60;3.30;;;20.50;43.70;;;;;;10264294;28;20319;-73
2023/08/05 08:51:14;;;;;;;4.30;3.23;;;20.60;44.00;;;;;;10281975;28;20324;-73
2023/08/05 08:56:17;;;;;;;5.23;3.80;;;20.60;43.80;;;;;;10265105;28;20243;-73
2023/08/05 09:01:22;;;;;;;3.50;3.20;;;20.70;43.70;;;;;;10273881;28;20678;-73
2023/08/05 09:06:27;;;;;;;3.60;3.30;;;20.70;43.80;;;;;;10272797;28;20278;-73
2023/08/05 09:11:30;;;;;;;3.63;3.43;;;20.70;43.70;;;;;;10269336;28;20236;-73
2023/08/05 09:16:35;;;;;;;3.27;3.07;;;20.80;44.20;;;;;;10276483;28;20314;-73
2023/08/05 09:21:41;;;;;;;3.40;3.20;;;20.80;43.60;;;;;;10275073;28;20291;-73
2023/08/05 09:26:44;;;;;;;3.70;3.37;;;20.90;43.80;;;;;;10272861;28;20318;-73
2023/08/05 09:31:56;;;;;;;3.70;3.40;;;21.00;43.60;;;;;;10272935;28;20597;-73
2023/08/05 09:37:00;;;;;;;3.00;2.80;;;21.00;43.90;;;;;;10264462;28;20697;-73
2023/08/05 09:42:04;;;;;;;3.47;3.17;;;21.10;43.40;;;;;;10265148;28;20759;-73
2023/08/05 09:47:10;;;;;;;3.80;3.47;;;21.20;43.60;;;;;;10267712;28;20243;-73
2023/08/05 09:52:17;;;;;;;3.40;3.20;;;21.30;43.50;;;;;;10288511;28;20307;-73
2023/08/05 09:57:21;;;;;;;3.43;3.07;;;21.40;43.80;;;;;;10261783;28;20739;-73
2023/08/05 10:02:26;;;;;;;5.70;3.30;;;21.50;43.10;;;;;;10256447;28;20236;-73
2023/08/05 10:07:29;;;;;;;3.20;2.90;;;21.60;43.20;;;;;;10270331;28;20241;-73
2023/08/05 10:12:37;;;;;;;3.00;2.80;;;21.70;42.90;;;;;;10282582;28;20232;-73
2023/08/05 10:17:43;;;;;;;3.07;2.87;;;21.80;42.90;;;;;;10276927;28;20238;-73
2023/08/05 10:23:02;;;;;;;3.30;3.10;;;21.90;42.70;;;;;;10269390;28;20245;-73
2023/08/05 10:28:05;;;;;;;3.17;2.87;;;22.00;42.80;;;;;;10286950;28;20263;-73
2023/08/05 10:33:10;;;;;;;3.13;2.93;;;22.20;42.70;;;;;;10279096;28;20235;-73
2023/08/05 10:38:16;;;;;;;3.03;2.83;;;22.30;42.40;;;;;;10275560;28;20719;-73
2023/08/05 10:43:30;;;;;;;3.40;2.90;;;22.30;42.20;;;;;;10264493;28;20617;-73
2023/08/05 10:48:35;;;;;;;3.00;2.70;;;22.40;41.50;;;;;;10275268;28;20236;-73
2023/08/05 10:53:39;;;;;;;2.73;2.53;;;22.50;41.50;;;;;;10277439;28;20246;-73
2023/08/05 10:58:47;;;;;;;2.70;2.50;;;22.60;41.70;;;;;;10282882;28;20227;-73
2023/08/05 11:03:56;;;;;;;3.00;2.80;;;22.70;41.80;;;;;;10283671;28;20290;-73
2023/08/05 11:09:01;;;;;;;3.10;2.77;;;22.80;41.60;;;;;;10262594;28;20236;-73
2023/08/05 11:14:05;;;;;;;2.90;2.70;;;22.90;41.40;;;;;;10261511;28;20232;-73
2023/08/05 11:19:11;;;;;;;2.73;2.53;;;23.00;41.50;;;;;;10283748;28;20970;-73
2023/08/05 11:24:17;;;;;;;2.83;2.63;;;23.10;40.80;;;;;;10275907;28;20242;-73
2023/08/05 11:29:20;;;;;;;2.40;2.30;;;23.30;40.60;;;;;;10272971;28;20251;-73
2023/08/05 11:34:25;;;;;;;3.10;2.90;;;23.40;41.10;;;;;;10279030;28;20227;-73
2023/08/05 11:39:28;;;;;;;2.67;2.47;;;23.60;40.50;;;;;;10273572;28;20843;-73
2023/08/05 11:44:31;;;;;;;2.70;2.50;;;23.70;40.80;;;;;;10267876;28;20236;-73
2023/08/05 11:49:36;;;;;;;2.80;2.70;;;23.90;40.30;;;;;;10267518;28;20742;-73
2023/08/05 11:54:41;;;;;;;2.60;2.40;;;24.10;40.10;;;;;;10261754;28;20240;-73
2023/08/05 11:59:46;;;;;;;2.87;2.67;;;24.20;40.20;;;;;;10249450;28;20240;-73
2023/08/05 12:04:58;;;;;;;2.83;2.60;;;24.20;39.90;;;;;;10265943;28;20696;-73
2023/08/05 12:10:08;;;;;;;2.60;2.40;;;24.30;38.80;;;;;;10266075;28;20251;-73
2023/08/05 12:15:14;;;;;;;2.60;2.40;;;24.40;39.00;;;;;;10272396;28;20236;-73
2023/08/05 12:20:20;;;;;;;2.80;2.60;;;24.50;39.30;;;;;;10253285;28;20295;-73
2023/08/05 12:25:23;;;;;;;3.03;2.70;;;24.50;38.30;;;;;;10279406;28;20327;-73
2023/08/05 12:30:26;;;;;;;2.70;2.50;;;24.60;38.70;;;;;;10272832;28;20953;-73
2023/08/05 12:35:31;;;;;;;7.43;2.90;;;24.50;38.40;;;;;;10272312;28;20318;-73
2023/08/05 12:40:34;;;;;;;3.33;2.70;;;24.60;37.80;;;;;;10266368;28;20245;-73
2023/08/05 12:45:37;;;;;;;2.90;2.70;;;24.50;38.30;;;;;;10273865;28;20240;-73
2023/08/05 12:50:41;;;;;;;2.70;2.50;;;24.40;38.00;;;;;;10273679;28;20292;-73
2023/08/05 12:55:45;;;;;;;2.63;2.43;;;24.30;37.80;;;;;;10258010;28;20232;-73
2023/08/05 13:00:48;;;;;;;3.03;2.80;;;24.10;38.40;;;;;;10265258;28;20232;-74
2023/08/05 13:05:53;;;;;;;2.53;2.43;;;24.00;39.30;;;;;;10272930;28;20244;-74
2023/08/05 13:10:56;;;;;;;2.97;2.70;;;23.90;39.90;;;;;;10258327;28;20715;-73
2023/08/05 13:15:59;;;;;;;2.97;2.77;;;23.80;39.80;;;;;;10273993;28;20236;-74
2023/08/05 13:21:04;;;;;;;3.43;3.23;;;23.80;39.80;;;;;;10266684;28;20263;-73
2023/08/05 13:26:07;;;;;;;3.33;3.03;;;23.70;40.40;;;;;;10274742;28;20326;-73
2023/08/05 13:31:10;;;;;;;2.60;2.50;;;23.60;40.00;;;;;;10258775;28;20252;-73
2023/08/05 13:36:15;;;;;;;2.67;2.20;;;23.60;40.00;;;;;;10288833;28;20602;-73
2023/08/05 13:41:18;;;;;;;2.20;2.10;;;23.50;39.60;;;;;;10286405;28;20250;-73
2023/08/05 13:46:21;;;;;;;1.87;1.77;;;23.30;39.50;;;;;;10274990;28;20237;-73
2023/08/05 13:51:26;;;;;;;2.10;2.00;;;23.30;39.70;;;;;;10272740;28;20819;-74
2023/08/05 13:56:29;;;;;;;2.10;1.90;;;23.20;40.00;;;;;;10280079;28;20228;-73
2023/08/05 14:01:32;;;;;;;2.00;1.90;;;23.10;39.90;;;;;;10278605;28;20727;-73
2023/08/05 14:06:37;;;;;;;2.30;2.10;;;23.00;39.80;;;;;;10268572;28;20231;-73
2023/08/05 14:11:40;;;;;;;1.83;1.73;;;22.90;40.50;;;;;;10276261;28;20267;-73
2023/08/05 14:16:43;;;;;;;2.47;2.27;;;22.90;40.80;;;;;;10265134;28;20239;-73
2023/08/05 14:21:47;;;;;;;2.27;2.17;;;22.90;40.70;;;;;;10284306;28;20235;-73
2023/08/05 14:26:51;;;;;;;2.50;2.30;;;22.90;41.20;;;;;;10280584;28;20330;-73
2023/08/05 14:31:54;;;;;;;2.23;2.13;;;22.90;41.10;;;;;;10264679;28;20316;-73
2023/08/05 14:36:59;;;;;;;2.03;1.93;;;22.90;40.90;;;;;;10279142;28;20240;-73
2023/08/05 14:42:03;;;;;;;2.90;2.70;;;22.90;41.50;;;;;;10281326;28;20364;-73
2023/08/05 14:47:06;;;;;;;2.80;2.60;;;23.00;41.00;;;;;;10280748;28;20253;-73
2023/08/05 14:52:11;;;;;;;3.40;2.60;;;23.00;41.00;;;;;;10274069;28;20240;-73
2023/08/05 14:57:14;;;;;;;2.70;2.50;;;23.00;41.30;;;;;;10265611;28;20240;-73
2023/08/05 15:02:17;;;;;;;2.63;2.33;;;23.10;41.00;;;;;;10266299;28;20239;-73
2023/08/05 15:07:22;;;;;;;2.13;2.03;;;23.10;40.90;;;;;;10270829;28;20248;-73
2023/08/05 15:12:25;;;;;;;2.60;2.40;;;23.20;40.90;;;;;;10275393;28;20231;-73
2023/08/05 15:17:28;;;;;;;2.60;2.40;;;23.20;40.70;;;;;;10264895;28;20723;-73
2023/08/05 15:22:32;;;;;;;2.10;2.00;;;23.20;40.50;;;;;;10269478;28;20310;-73
2023/08/05 15:27:35;;;;;;;2.70;2.50;;;23.20;40.80;;;;;;10275264;28;20228;-73
2023/08/05 15:32:39;;;;;;;2.13;2.03;;;23.20;40.70;;;;;;10273366;28;20765;-74
2023/08/05 15:37:43;;;;;;;2.53;2.33;;;23.20;40.60;;;;;;10269269;28;20240;-74
2023/08/05 15:42:48;;;;;;;2.30;2.10;;;23.20;40.80;;;;;;10273712;28;20227;-73
2023/08/05 15:47:51;;;;;;;2.60;2.40;;;23.10;40.50;;;;;;10265656;28;20236;-73
2023/08/05 15:52:55;;;;;;;2.33;2.20;;;23.10;40.50;;;;;;10273282;28;20250;-73
2023/08/05 15:57:59;;;;;;;2.63;2.20;;;23.10;40.60;;;;;;10270222;28;20331;-73
2023/08/05 16:03:02;;;;;;;2.67;2.47;;;23.10;40.50;;;;;;10263734;28;20323;-73
2023/08/05 16:08:09;;;;;;;2.70;2.50;;;23.10;40.70;;;;;;10263298;28;20579;-73
2023/08/05 16:13:12;;;;;;;2.20;2.10;;;23.10;40.60;;;;;;10277691;28;20319;-73
2023/08/05 16:18:15;;;;;;;2.60;2.40;;;23.10;40.40;;;;;;10272734;28;20319;-73
2023/08/05 16:23:19;;;;;;;2.80;2.60;;;23.10;40.30;;;;;;10256980;28;20258;-73
2023/08/05 16:28:23;;;;;;;2.70;2.50;;;23.10;40.90;;;;;;10258627;28;20246;-73
2023/08/05 16:33:26;;;;;;;2.90;2.70;;;23.10;41.00;;;;;;10265443;28;20314;-73
2023/08/05 16:38:31;;;;;;;2.33;2.13;;;23.10;41.00;;;;;;10264315;28;20235;-73
2023/08/05 16:43:34;;;;;;;2.73;2.53;;;23.10;41.00;;;;;;10261915;28;20227;-73
2023/08/05 16:48:38;;;;;;;3.33;3.13;;;23.10;40.80;;;;;;10270715;28;20240;-73
2023/08/05 16:53:42;;;;;;;4.20;3.43;;;23.10;40.70;;;;;;10259308;28;20233;-73
2023/08/05 16:58:45;;;;;;;4.17;3.87;;;23.10;40.70;;;;;;10265843;28;20242;-73
2023/08/05 17:03:49;;;;;;;4.00;3.70;;;23.10;40.70;;;;;;10274053;28;20227;-73
2023/08/05 17:08:53;;;;;;;3.83;2.80;;;23.20;40.60;;;;;;10276488;28;20269;-73
2023/08/05 17:13:57;;;;;;;2.90;2.70;;;23.10;40.60;;;;;;10266649;28;20227;-73
2023/08/05 17:19:00;;;;;;;2.87;2.70;;;23.10;40.60;;;;;;10281230;28;20235;-73
2023/08/05 17:24:05;;;;;;;3.00;2.80;;;23.10;40.80;;;;;;10259113;28;20236;-73
2023/08/05 17:29:08;;;;;;;3.10;2.90;;;23.10;40.90;;;;;;10273382;28;20270;-73
2023/08/05 17:34:11;;;;;;;2.90;2.70;;;23.10;41.00;;;;;;10269361;28;20577;-73
2023/08/05 17:39:16;;;;;;;2.80;2.60;;;23.10;41.00;;;;;;10274692;28;20626;-73
2023/08/05 17:44:19;;;;;;;3.40;3.10;;;23.00;41.10;;;;;;10265220;28;20715;-73
2023/08/05 17:49:22;;;;;;;4.17;3.87;;;23.00;40.90;;;;;;10269009;28;20320;-73
2023/08/05 17:54:27;;;;;;;3.67;3.43;;;23.00;41.60;;;;;;10252749;28;20319;-73
2023/08/05 17:59:30;;;;;;;3.50;3.30;;;23.00;41.10;;;;;;10265071;28;20718;-73
2023/08/05 18:04:34;;;;;;;3.50;3.30;;;22.90;40.90;;;;;;10268692;28;20698;-73
2023/08/05 18:09:38;;;;;;;3.13;2.93;;;22.90;41.00;;;;;;10271994;28;20812;-73
2023/08/05 18:14:44;;;;;;;3.27;3.07;;;22.90;41.30;;;;;;10284416;28;20228;-73
2023/08/05 18:19:48;;;;;;;4.23;3.90;;;22.90;41.50;;;;;;10261427;28;20734;-73
2023/08/05 18:24:52;;;;;;;3.33;3.13;;;22.90;41.70;;;;;;10286902;28;20243;-73
2023/08/05 18:29:55;;;;;;;2.90;2.70;;;22.90;41.70;;;;;;10276702;28;20236;-73
2023/08/05 18:34:58;;;;;;;2.63;2.43;;;22.80;41.20;;;;;;10284769;28;20792;-73
2023/08/05 18:40:03;;;;;;;3.17;2.97;;;22.70;41.20;;;;;;10272320;28;20244;-73
2023/08/05 18:45:08;;;;;;;3.03;2.70;;;22.60;41.40;;;;;;10263026;28;20331;-73
2023/08/05 18:50:11;;;;;;;3.10;2.90;;;22.50;41.50;;;;;;10274541;28;20724;-73
2023/08/05 18:55:16;;;;;;;3.27;3.07;;;22.50;41.70;;;;;;10268312;28;20739;-73
2023/08/05 19:00:19;;;;;;;4.07;3.67;;;22.40;41.90;;;;;;10261437;28;20228;-73
2023/08/05 19:05:22;;;;;;;4.50;3.80;;;22.40;41.70;;;;;;10272110;28;20243;-73
2023/08/05 19:10:26;;;;;;;4.17;3.87;;;22.20;41.70;;;;;;10274134;28;20740;-73
2023/08/05 19:15:29;;;;;;;5.37;4.90;;;22.10;42.40;;;;;;10263981;28;20237;-73
2023/08/05 19:20:35;;;;;;;6.47;4.23;;;22.00;43.00;;;;;;10273594;28;20723;-73
2023/08/05 19:25:39;;;;;;;5.07;3.80;;;21.90;42.70;;;;;;10266136;28;20257;-73
2023/08/05 19:30:43;;;;;;;4.80;4.40;;;21.80;42.80;;;;;;10267071;28;20323;-73
2023/08/05 19:35:46;;;;;;;4.13;3.83;;;21.60;42.60;;;;;;10264924;28;20263;-73
2023/08/05 19:40:58;;;;;;;3.90;3.60;;;21.60;42.80;;;;;;10284114;28;20306;-73
2023/08/05 19:46:05;;;;;;;3.70;3.40;;;21.50;43.50;;;;;;10274434;28;20234;-73
2023/08/05 19:51:08;;;;;;;4.13;3.83;;;21.50;43.60;;;;;;10279768;28;20783;-73
2023/08/05 19:56:18;;;;;;;4.00;3.70;;;21.40;42.90;;;;;;10269491;28;20227;-73
2023/08/05 20:01:21;;;;;;;4.30;4.00;;;21.40;43.30;;;;;;10264378;28;20248;-74
2023/08/05 20:06:24;;;;;;;4.23;3.77;;;21.30;43.20;;;;;;10262511;28;20740;-74
2023/08/05 20:11:28;;;;;;;4.00;3.60;;;21.30;43.00;;;;;;10256495;28;20239;-74
2023/08/05 20:16:32;;;;;;;3.40;3.20;;;21.30;43.40;;;;;;10264967;28;20992;-74
2023/08/05 20:21:35;;;;;;;4.17;3.87;;;21.20;43.10;;;;;;10266891;28;20235;-70
2023/08/05 20:26:39;;;;;;;4.83;3.73;;;21.20;43.30;;;;;;10255397;28;21280;-70
2023/08/05 20:31:43;;;;;;;4.30;3.90;;;21.10;43.70;;;;;;10257657;28;20231;-70
2023/08/05 20:36:46;;;;;;;4.50;4.20;;;21.00;43.50;;;;;;10253109;28;20224;-70
2023/08/05 20:41:50;;;;;;;5.20;4.80;;;21.00;43.60;;;;;;10252651;28;20238;-70
2023/08/05 20:46:54;;;;;;;7.00;6.23;;;21.00;44.10;;;;;;10264008;28;20258;-70
2023/08/05 20:51:58;;;;;;;6.50;6.00;;;21.00;43.60;;;;;;10256369;28;20648;-70
2023/08/05 20:57:02;;;;;;;4.20;3.80;;;20.90;43.60;;;;;;10254693;28;20232;-70
2023/08/05 21:02:06;;;;;;;4.17;3.87;;;20.80;44.00;;;;;;10261391;28;20262;-70
2023/08/05 21:07:10;;;;;;;3.50;3.20;;;20.80;44.10;;;;;;10252793;28;20360;-70
2023/08/05 21:12:17;;;;;;;3.13;2.93;;;20.70;44.00;;;;;;10260984;28;20264;-70
2023/08/05 21:17:20;;;;;;;3.73;3.47;;;20.70;44.70;;;;;;10260418;28;20291;-70
2023/08/05 21:22:23;;;;;;;3.40;3.20;;;20.80;44.50;;;;;;10252922;28;20234;-70
2023/08/05 21:27:28;;;;;;;3.83;3.53;;;20.80;44.30;;;;;;10262296;28;20242;-70
2023/08/05 21:32:31;;;;;;;3.67;3.37;;;20.80;44.70;;;;;;10257326;28;20239;-70
2023/08/05 21:37:34;;;;;;;3.40;3.20;;;20.80;44.40;;;;;;10257171;28;20291;-70
2023/08/05 21:42:39;;;;;;;3.87;3.57;;;20.70;44.50;;;;;;10263845;28;20227;-70
2023/08/05 21:47:42;;;;;;;3.97;3.27;;;20.70;45.00;;;;;;10269534;28;20228;-70
2023/08/05 21:52:45;;;;;;;3.50;3.30;;;20.60;44.80;;;;;;10264597;28;20236;-70
2023/08/05 21:57:50;;;;;;;3.60;3.30;;;20.60;44.80;;;;;;10265323;28;20231;-70
2023/08/05 22:02:53;;;;;;;3.57;3.37;;;20.70;45.40;;;;;;10264865;28;20227;-70
2023/08/05 22:07:56;;;;;;;3.97;3.67;;;20.60;44.70;;;;;;10264107;28;20745;-70
2023/08/05 22:13:01;;;;;;;3.40;3.20;;;20.70;45.00;;;;;;10265566;28;20232;-70
2023/08/05 22:18:04;;;;;;;3.73;3.30;;;20.70;45.40;;;;;;10260137;28;20228;-69
2023/08/05 22:23:07;;;;;;;3.47;3.27;;;20.60;45.00;;;;;;10259612;28;20236;-70
2023/08/05 22:28:12;;;;;;;3.33;3.13;;;20.70;45.00;;;;;;10258879;28;20628;-70
2023/08/05 22:33:15;;;;;;;3.50;3.30;;;20.70;45.40;;;;;;10264481;28;20244;-70
2023/08/05 22:38:18;;;;;;;3.93;3.60;;;20.70;45.00;;;;;;10261637;28;20231;-70
2023/08/05 22:43:23;;;;;;;3.63;3.33;;;20.60;44.90;;;;;;10261133;28;21202;-70
2023/08/05 22:48:26;;;;;;;3.50;3.30;;;20.60;45.40;;;;;;10264964;28;20252;-69
2023/08/05 22:53:29;;;;;;;3.40;3.17;;;20.50;45.00;;;;;;10257735;28;20236;-70
2023/08/05 22:58:34;;;;;;;3.77;3.47;;;20.50;45.10;;;;;;10262094;28;20227;-70
2023/08/05 23:03:37;;;;;;;3.77;3.07;;;20.50;45.50;;;;;;10255785;28;20715;-70
2023/08/05 23:08:40;;;;;;;3.43;3.23;;;20.50;45.10;;;;;;10259844;28;20228;-70
2023/08/05 23:13:45;;;;;;;3.40;3.20;;;20.60;45.20;;;;;;10261712;28;20224;-70
2023/08/05 23:18:49;;;;;;;3.40;3.20;;;20.60;45.30;;;;;;10262175;28;20717;-70
2023/08/05 23:23:52;;;;;;;3.83;3.20;;;20.70;45.20;;;;;;10265949;28;20294;-70
2023/08/05 23:28:58;;;;;;;4.03;3.73;;;20.60;44.80;;;;;;10269173;28;20425;-70
2023/08/05 23:34:01;;;;;;;3.70;3.40;;;20.60;44.70;;;;;;10262589;28;20227;-70
2023/08/05 23:39:04;;;;;;;3.93;3.53;;;20.50;43.80;;;;;;10259828;28;20234;-70
2023/08/05 23:44:09;;;;;;;3.27;3.07;;;20.30;43.90;;;;;;10266370;28;20243;-70
2023/08/05 23:49:12;;;;;;;2.93;2.73;;;20.20;44.30;;;;;;10261679;28;20244;-70
2023/08/05 23:54:15;;;;;;;2.20;1.80;;;20.10;43.90;;;;;;10254923;28;20240;-70
2023/08/05 23:59:20;;;;;;;4.50;1.70;;;20.10;43.00;;;;;;10258280;28;20270;-70
